sensor_id;sensor_type;location;lat;lon;timestamp;P1;durP1;ratioP1;P2;durP2;ratioP2
28074;SDS011;15385;51.088;6.572;2022-08-11T00:00:13;5.63;;;1.73;;
28074;SDS011;15385;51.088;6.572;2022-08-11T00:02:45;6.53;;;1.77;;
28074;SDS011;15385;51.088;6.572;2022-08-11T00:05:19;2.45;;;1.90;;
28074;SDS011;15385;51.088;6.572;2022-08-11T00:07:52;7.53;;;2.22;;
28074;SDS011;15385;51.088;6.572;2022-08-11T00:10:25;3.08;;;1.98;;
28074;SDS011;15385;51.088;6.572;2022-08-11T00:12:59;3.08;;;2.00;;
28074;SDS011;15385;51.088;6.572;2022-08-11T00:15:51;2.63;;;1.60;;
28074;SDS011;15385;51.088;6.572;2022-08-11T00:18:22;1.90;;;1.40;;
28074;SDS011;15385;51.088;6.572;2022-08-11T00:20:54;3.00;;;1.80;;
28074;SDS011;15385;51.088;6.572;2022-08-11T00:23:29;2.55;;;1.80;;
28074;SDS011;15385;51.088;6.572;2022-08-11T00:26:00;5.10;;;2.10;;
28074;SDS011;15385;51.088;6.572;2022-08-11T00:28:36;3.05;;;2.10;;
28074;SDS011;15385;51.088;6.572;2022-08-11T00:31:08;2.90;;;1.85;;
28074;SDS011;15385;51.088;6.572;2022-08-11T00:33:50;2.50;;;1.90;;
28074;SDS011;15385;51.088;6.572;2022-08-11T00:36:24;5.03;;;1.85;;
28074;SDS011;15385;51.088;6.572;2022-08-11T00:39:02;3.30;;;2.10;;
28074;SDS011;15385;51.088;6.572;2022-08-11T00:41:39;3.47;;;1.70;;
28074;SDS011;15385;51.088;6.572;2022-08-11T00:44:32;2.33;;;1.67;;
28074;SDS011;15385;51.088;6.572;2022-08-11T00:53:53;3.05;;;1.80;;
28074;SDS011;15385;51.088;6.572;2022-08-11T01:01:57;3.33;;;1.98;;
28074;SDS011;15385;51.088;6.572;2022-08-11T01:45:27;2.55;;;1.75;;
28074;SDS011;15385;51.088;6.572;2022-08-11T01:51:14;2.15;;;1.75;;
28074;SDS011;15385;51.088;6.572;2022-08-11T01:59:45;2.65;;;1.90;;
28074;SDS011;15385;51.088;6.572;2022-08-11T02:05:43;2.78;;;1.90;;
28074;SDS011;15385;51.088;6.572;2022-08-11T02:11:37;4.00;;;2.05;;
28074;SDS011;15385;51.088;6.572;2022-08-11T02:42:41;2.72;;;1.95;;
28074;SDS011;15385;51.088;6.572;2022-08-11T02:45:44;4.55;;;2.17;;
28074;SDS011;15385;51.088;6.572;2022-08-11T03:02:59;3.90;;;2.00;;
28074;SDS011;15385;51.088;6.572;2022-08-11T03:11:50;3.00;;;2.30;;
28074;SDS011;15385;51.088;6.572;2022-08-11T03:18:17;4.70;;;2.30;;
28074;SDS011;15385;51.088;6.572;2022-08-11T03:20:58;2.92;;;1.90;;
28074;SDS011;15385;51.088;6.572;2022-08-11T03:29:43;4.95;;;2.35;;
28074;SDS011;15385;51.088;6.572;2022-08-11T03:35:40;3.90;;;2.10;;
28074;SDS011;15385;51.088;6.572;2022-08-11T03:38:26;5.30;;;2.20;;
28074;SDS011;15385;51.088;6.572;2022-08-11T03:41:18;10.38;;;2.22;;
28074;SDS011;15385;51.088;6.572;2022-08-11T03:52:50;3.33;;;2.33;;
28074;SDS011;15385;51.088;6.572;2022-08-11T03:58:26;6.30;;;2.40;;
28074;SDS011;15385;51.088;6.572;2022-08-11T04:07:15;3.15;;;2.22;;
28074;SDS011;15385;51.088;6.572;2022-08-11T04:13:07;2.97;;;2.20;;
28074;SDS011;15385;51.088;6.572;2022-08-11T04:24:43;5.60;;;2.78;;
28074;SDS011;15385;51.088;6.572;2022-08-11T04:30:58;5.95;;;2.60;;
28074;SDS011;15385;51.088;6.572;2022-08-11T05:01:04;5.55;;;3.15;;
28074;SDS011;15385;51.088;6.572;2022-08-11T05:16:41;9.20;;;3.22;;
28074;SDS011;15385;51.088;6.572;2022-08-11T05:19:55;5.85;;;2.92;;
28074;SDS011;15385;51.088;6.572;2022-08-11T05:22:49;6.95;;;3.10;;
28074;SDS011;15385;51.088;6.572;2022-08-11T05:25:42;8.98;;;2.88;;
28074;SDS011;15385;51.088;6.572;2022-08-11T05:28:35;7.75;;;2.92;;
28074;SDS011;15385;51.088;6.572;2022-08-11T05:31:32;5.88;;;2.95;;
28074;SDS011;15385;51.088;6.572;2022-08-11T05:34:25;6.25;;;3.03;;
28074;SDS011;15385;51.088;6.572;2022-08-11T05:40:10;7.03;;;2.97;;
28074;SDS011;15385;51.088;6.572;2022-08-11T05:43:02;4.43;;;2.83;;
28074;SDS011;15385;51.088;6.572;2022-08-11T05:46:00;7.72;;;2.83;;
28074;SDS011;15385;51.088;6.572;2022-08-11T05:48:51;8.10;;;3.05;;
28074;SDS011;15385;51.088;6.572;2022-08-11T05:51:41;4.40;;;2.83;;
28074;SDS011;15385;51.088;6.572;2022-08-11T05:54:31;5.35;;;2.92;;
28074;SDS011;15385;51.088;6.572;2022-08-11T05:57:22;6.05;;;2.80;;
28074;SDS011;15385;51.088;6.572;2022-08-11T05:59:57;2.92;;;2.40;;
28074;SDS011;15385;51.088;6.572;2022-08-11T06:02:30;5.68;;;2.72;;
28074;SDS011;15385;51.088;6.572;2022-08-11T06:05:00;3.50;;;2.75;;
28074;SDS011;15385;51.088;6.572;2022-08-11T06:07:31;5.45;;;2.15;;
28074;SDS011;15385;51.088;6.572;2022-08-11T06:10:03;5.72;;;2.67;;
28074;SDS011;15385;51.088;6.572;2022-08-11T06:12:35;7.40;;;2.58;;
28074;SDS011;15385;51.088;6.572;2022-08-11T06:15:09;3.15;;;2.38;;
28074;SDS011;15385;51.088;6.572;2022-08-11T06:17:44;6.70;;;2.30;;
28074;SDS011;15385;51.088;6.572;2022-08-11T06:20:17;5.93;;;2.40;;
28074;SDS011;15385;51.088;6.572;2022-08-11T06:22:56;2.33;;;2.13;;
28074;SDS011;15385;51.088;6.572;2022-08-11T06:25:36;4.38;;;2.30;;
28074;SDS011;15385;51.088;6.572;2022-08-11T06:28:07;5.25;;;2.25;;
28074;SDS011;15385;51.088;6.572;2022-08-11T06:30:38;4.00;;;2.40;;
28074;SDS011;15385;51.088;6.572;2022-08-11T06:33:15;3.55;;;2.40;;
28074;SDS011;15385;51.088;6.572;2022-08-11T06:47:11;5.63;;;2.30;;
28074;SDS011;15385;51.088;6.572;2022-08-11T06:49:45;4.45;;;2.22;;
28074;SDS011;15385;51.088;6.572;2022-08-11T06:57:43;7.65;;;2.72;;
28074;SDS011;15385;51.088;6.572;2022-08-11T07:00:35;5.20;;;2.00;;
28074;SDS011;15385;51.088;6.572;2022-08-11T07:03:07;7.20;;;2.25;;
28074;SDS011;15385;51.088;6.572;2022-08-11T07:05:50;3.05;;;2.30;;
28074;SDS011;15385;51.088;6.572;2022-08-11T07:14:49;2.55;;;2.20;;
28074;SDS011;15385;51.088;6.572;2022-08-11T07:17:43;4.65;;;2.65;;
28074;SDS011;15385;51.088;6.572;2022-08-11T07:20:18;12.15;;;2.72;;
28074;SDS011;15385;51.088;6.572;2022-08-11T07:23:07;2.85;;;2.00;;
28074;SDS011;15385;51.088;6.572;2022-08-11T07:25:58;4.60;;;2.38;;
28074;SDS011;15385;51.088;6.572;2022-08-11T07:28:48;4.38;;;2.22;;
28074;SDS011;15385;51.088;6.572;2022-08-11T07:37:08;2.75;;;1.95;;
28074;SDS011;15385;51.088;6.572;2022-08-11T07:39:43;3.13;;;2.10;;
28074;SDS011;15385;51.088;6.572;2022-08-11T07:42:16;5.65;;;2.30;;
28074;SDS011;15385;51.088;6.572;2022-08-11T07:44:51;2.95;;;2.53;;
28074;SDS011;15385;51.088;6.572;2022-08-11T07:47:46;3.38;;;2.05;;
28074;SDS011;15385;51.088;6.572;2022-08-11T07:50:39;3.95;;;2.38;;
28074;SDS011;15385;51.088;6.572;2022-08-11T07:53:29;2.53;;;2.10;;
28074;SDS011;15385;51.088;6.572;2022-08-11T07:56:01;2.33;;;1.90;;
28074;SDS011;15385;51.088;6.572;2022-08-11T07:58:33;9.63;;;2.20;;
28074;SDS011;15385;51.088;6.572;2022-08-11T08:01:24;2.50;;;1.80;;
28074;SDS011;15385;51.088;6.572;2022-08-11T08:04:15;4.05;;;2.53;;
28074;SDS011;15385;51.088;6.572;2022-08-11T08:07:06;5.47;;;2.00;;
28074;SDS011;15385;51.088;6.572;2022-08-11T08:09:55;4.18;;;1.95;;
28074;SDS011;15385;51.088;6.572;2022-08-11T08:12:45;3.25;;;2.40;;
28074;SDS011;15385;51.088;6.572;2022-08-11T08:15:34;4.57;;;2.20;;
28074;SDS011;15385;51.088;6.572;2022-08-11T08:18:23;3.65;;;1.88;;
28074;SDS011;15385;51.088;6.572;2022-08-11T08:20:55;4.15;;;2.00;;
28074;SDS011;15385;51.088;6.572;2022-08-11T08:23:41;4.10;;;2.55;;
28074;SDS011;15385;51.088;6.572;2022-08-11T08:26:17;3.47;;;2.50;;
28074;SDS011;15385;51.088;6.572;2022-08-11T08:29:06;7.35;;;2.45;;
28074;SDS011;15385;51.088;6.572;2022-08-11T08:32:03;4.30;;;2.03;;
28074;SDS011;15385;51.088;6.572;2022-08-11T08:34:36;7.03;;;2.33;;
28074;SDS011;15385;51.088;6.572;2022-08-11T08:37:09;2.42;;;1.90;;
28074;SDS011;15385;51.088;6.572;2022-08-11T08:39:39;2.85;;;2.40;;
28074;SDS011;15385;51.088;6.572;2022-08-11T08:42:11;2.40;;;1.73;;
28074;SDS011;15385;51.088;6.572;2022-08-11T08:44:57;4.82;;;2.00;;
28074;SDS011;15385;51.088;6.572;2022-08-11T08:47:44;6.38;;;1.80;;
28074;SDS011;15385;51.088;6.572;2022-08-11T08:50:42;3.05;;;2.05;;
28074;SDS011;15385;51.088;6.572;2022-08-11T08:53:40;5.53;;;1.92;;
28074;SDS011;15385;51.088;6.572;2022-08-11T08:56:26;3.22;;;1.98;;
28074;SDS011;15385;51.088;6.572;2022-08-11T08:58:58;3.00;;;1.95;;
28074;SDS011;15385;51.088;6.572;2022-08-11T09:01:35;4.05;;;2.05;;
28074;SDS011;15385;51.088;6.572;2022-08-11T09:04:09;2.80;;;2.10;;
28074;SDS011;15385;51.088;6.572;2022-08-11T09:06:41;2.88;;;1.92;;
28074;SDS011;15385;51.088;6.572;2022-08-11T09:09:12;4.78;;;1.80;;
28074;SDS011;15385;51.088;6.572;2022-08-11T09:11:44;3.30;;;2.33;;
28074;SDS011;15385;51.088;6.572;2022-08-11T09:14:23;5.47;;;2.75;;
28074;SDS011;15385;51.088;6.572;2022-08-11T09:17:23;3.03;;;2.17;;
28074;SDS011;15385;51.088;6.572;2022-08-11T09:20:18;4.43;;;2.15;;
28074;SDS011;15385;51.088;6.572;2022-08-11T09:22:57;4.38;;;2.42;;
28074;SDS011;15385;51.088;6.572;2022-08-11T09:26:06;3.28;;;1.90;;
28074;SDS011;15385;51.088;6.572;2022-08-11T09:31:32;3.28;;;2.10;;
28074;SDS011;15385;51.088;6.572;2022-08-11T09:34:03;3.53;;;1.98;;
28074;SDS011;15385;51.088;6.572;2022-08-11T09:36:34;5.30;;;2.30;;
28074;SDS011;15385;51.088;6.572;2022-08-11T09:39:23;3.53;;;2.00;;
28074;SDS011;15385;51.088;6.572;2022-08-11T09:42:15;2.30;;;1.80;;
28074;SDS011;15385;51.088;6.572;2022-08-11T09:44:49;7.00;;;1.95;;
28074;SDS011;15385;51.088;6.572;2022-08-11T09:47:25;5.25;;;2.03;;
28074;SDS011;15385;51.088;6.572;2022-08-11T09:49:59;4.22;;;2.08;;
28074;SDS011;15385;51.088;6.572;2022-08-11T09:52:33;4.07;;;1.75;;
28074;SDS011;15385;51.088;6.572;2022-08-11T09:55:07;2.67;;;1.65;;
28074;SDS011;15385;51.088;6.572;2022-08-11T09:57:44;5.35;;;1.95;;
28074;SDS011;15385;51.088;6.572;2022-08-11T10:00:35;2.10;;;1.80;;
28074;SDS011;15385;51.088;6.572;2022-08-11T10:03:09;3.67;;;1.90;;
28074;SDS011;15385;51.088;6.572;2022-08-11T10:05:59;5.47;;;1.70;;
28074;SDS011;15385;51.088;6.572;2022-08-11T10:08:52;5.05;;;1.83;;
28074;SDS011;15385;51.088;6.572;2022-08-11T10:11:24;4.00;;;1.70;;
28074;SDS011;15385;51.088;6.572;2022-08-11T10:13:56;2.42;;;2.17;;
28074;SDS011;15385;51.088;6.572;2022-08-11T10:16:47;3.45;;;1.63;;
28074;SDS011;15385;51.088;6.572;2022-08-11T10:19:19;3.83;;;1.50;;
28074;SDS011;15385;51.088;6.572;2022-08-11T10:21:51;3.35;;;1.63;;
28074;SDS011;15385;51.088;6.572;2022-08-11T10:24:42;5.80;;;1.60;;
28074;SDS011;15385;51.088;6.572;2022-08-11T10:27:33;1.50;;;1.40;;
28074;SDS011;15385;51.088;6.572;2022-08-11T10:30:05;6.15;;;1.75;;
28074;SDS011;15385;51.088;6.572;2022-08-11T10:32:58;3.38;;;1.92;;
28074;SDS011;15385;51.088;6.572;2022-08-11T10:35:47;2.72;;;1.92;;
28074;SDS011;15385;51.088;6.572;2022-08-11T10:38:18;2.33;;;1.73;;
28074;SDS011;15385;51.088;6.572;2022-08-11T10:40:49;2.35;;;1.85;;
28074;SDS011;15385;51.088;6.572;2022-08-11T10:43:40;3.47;;;2.10;;
28074;SDS011;15385;51.088;6.572;2022-08-11T10:46:12;2.10;;;1.58;;
28074;SDS011;15385;51.088;6.572;2022-08-11T10:49:03;2.42;;;1.60;;
28074;SDS011;15385;51.088;6.572;2022-08-11T10:51:35;3.75;;;2.42;;
28074;SDS011;15385;51.088;6.572;2022-08-11T10:54:24;6.00;;;2.03;;
28074;SDS011;15385;51.088;6.572;2022-08-11T10:57:13;4.47;;;1.83;;
28074;SDS011;15385;51.088;6.572;2022-08-11T11:00:05;4.72;;;2.15;;
28074;SDS011;15385;51.088;6.572;2022-08-11T11:02:38;3.95;;;1.90;;
28074;SDS011;15385;51.088;6.572;2022-08-11T11:07:51;3.95;;;1.60;;
28074;SDS011;15385;51.088;6.572;2022-08-11T11:10:26;5.93;;;2.22;;
28074;SDS011;15385;51.088;6.572;2022-08-11T11:12:57;4.60;;;2.13;;
28074;SDS011;15385;51.088;6.572;2022-08-11T11:18:37;3.47;;;2.30;;
28074;SDS011;15385;51.088;6.572;2022-08-11T11:21:09;5.00;;;1.63;;
28074;SDS011;15385;51.088;6.572;2022-08-11T11:24:07;2.40;;;2.20;;
28074;SDS011;15385;51.088;6.572;2022-08-11T11:38:47;3.50;;;2.10;;
28074;SDS011;15385;51.088;6.572;2022-08-11T11:41:18;3.70;;;1.73;;
28074;SDS011;15385;51.088;6.572;2022-08-11T11:43:55;4.15;;;1.70;;
28074;SDS011;15385;51.088;6.572;2022-08-11T11:46:30;1.90;;;1.80;;
28074;SDS011;15385;51.088;6.572;2022-08-11T11:49:02;2.60;;;1.88;;
28074;SDS011;15385;51.088;6.572;2022-08-11T11:51:37;3.72;;;1.70;;
28074;SDS011;15385;51.088;6.572;2022-08-11T11:54:09;2.75;;;1.98;;
28074;SDS011;15385;51.088;6.572;2022-08-11T11:56:40;2.63;;;1.77;;
28074;SDS011;15385;51.088;6.572;2022-08-11T11:59:14;4.18;;;1.73;;
28074;SDS011;15385;51.088;6.572;2022-08-11T12:04:36;2.75;;;1.83;;
28074;SDS011;15385;51.088;6.572;2022-08-11T12:07:10;5.20;;;1.60;;
28074;SDS011;15385;51.088;6.572;2022-08-11T12:10:00;2.53;;;1.80;;
28074;SDS011;15385;51.088;6.572;2022-08-11T12:12:31;8.02;;;1.88;;
28074;SDS011;15385;51.088;6.572;2022-08-11T12:15:22;2.80;;;1.73;;
28074;SDS011;15385;51.088;6.572;2022-08-11T12:17:57;5.28;;;1.75;;
28074;SDS011;15385;51.088;6.572;2022-08-11T12:20:29;1.75;;;1.50;;
28074;SDS011;15385;51.088;6.572;2022-08-11T12:23:01;6.03;;;1.48;;
28074;SDS011;15385;51.088;6.572;2022-08-11T12:25:50;2.53;;;1.70;;
28074;SDS011;15385;51.088;6.572;2022-08-11T12:28:39;2.03;;;1.48;;
28074;SDS011;15385;51.088;6.572;2022-08-11T12:31:12;2.92;;;1.40;;
28074;SDS011;15385;51.088;6.572;2022-08-11T12:33:43;1.80;;;1.50;;
28074;SDS011;15385;51.088;6.572;2022-08-11T12:36:16;2.33;;;1.90;;
28074;SDS011;15385;51.088;6.572;2022-08-11T12:38:49;3.13;;;1.80;;
28074;SDS011;15385;51.088;6.572;2022-08-11T12:41:21;2.55;;;1.90;;
28074;SDS011;15385;51.088;6.572;2022-08-11T12:44:10;4.10;;;1.33;;
28074;SDS011;15385;51.088;6.572;2022-08-11T12:47:00;2.78;;;1.70;;
28074;SDS011;15385;51.088;6.572;2022-08-11T12:49:34;2.75;;;1.75;;
28074;SDS011;15385;51.088;6.572;2022-08-11T12:52:25;2.35;;;1.67;;
28074;SDS011;15385;51.088;6.572;2022-08-11T12:57:40;2.42;;;1.65;;
28074;SDS011;15385;51.088;6.572;2022-08-11T13:00:33;2.42;;;1.77;;
28074;SDS011;15385;51.088;6.572;2022-08-11T13:03:22;5.22;;;1.80;;
28074;SDS011;15385;51.088;6.572;2022-08-11T13:06:12;5.85;;;1.75;;
28074;SDS011;15385;51.088;6.572;2022-08-11T13:08:44;4.22;;;1.50;;
28074;SDS011;15385;51.088;6.572;2022-08-11T13:11:16;5.85;;;1.70;;
28074;SDS011;15385;51.088;6.572;2022-08-11T13:14:06;3.58;;;1.88;;
28074;SDS011;15385;51.088;6.572;2022-08-11T13:16:38;2.53;;;1.80;;
28074;SDS011;15385;51.088;6.572;2022-08-11T13:19:28;2.30;;;1.60;;
28074;SDS011;15385;51.088;6.572;2022-08-11T13:22:03;5.03;;;1.90;;
28074;SDS011;15385;51.088;6.572;2022-08-11T13:24:36;1.70;;;1.60;;
28074;SDS011;15385;51.088;6.572;2022-08-11T13:27:10;2.28;;;1.63;;
28074;SDS011;15385;51.088;6.572;2022-08-11T13:29:41;1.48;;;1.30;;
28074;SDS011;15385;51.088;6.572;2022-08-11T13:32:15;2.13;;;1.60;;
28074;SDS011;15385;51.088;6.572;2022-08-11T13:34:49;2.45;;;1.98;;
28074;SDS011;15385;51.088;6.572;2022-08-11T13:37:19;3.63;;;1.55;;
28074;SDS011;15385;51.088;6.572;2022-08-11T13:39:51;4.65;;;1.98;;
28074;SDS011;15385;51.088;6.572;2022-08-11T13:42:22;2.30;;;1.75;;
28074;SDS011;15385;51.088;6.572;2022-08-11T13:44:53;3.25;;;2.10;;
28074;SDS011;15385;51.088;6.572;2022-08-11T13:47:25;5.45;;;2.03;;
28074;SDS011;15385;51.088;6.572;2022-08-11T13:49:56;3.17;;;2.05;;
28074;SDS011;15385;51.088;6.572;2022-08-11T13:52:27;8.00;;;2.10;;
28074;SDS011;15385;51.088;6.572;2022-08-11T13:54:58;2.63;;;1.70;;
28074;SDS011;15385;51.088;6.572;2022-08-11T13:57:30;2.40;;;1.70;;
28074;SDS011;15385;51.088;6.572;2022-08-11T14:00:06;2.78;;;1.77;;
28074;SDS011;15385;51.088;6.572;2022-08-11T14:02:42;6.45;;;1.73;;
28074;SDS011;15385;51.088;6.572;2022-08-11T14:05:17;3.15;;;1.58;;
28074;SDS011;15385;51.088;6.572;2022-08-11T14:08:13;3.05;;;1.80;;
28074;SDS011;15385;51.088;6.572;2022-08-11T14:10:49;3.65;;;1.70;;
28074;SDS011;15385;51.088;6.572;2022-08-11T14:13:41;5.47;;;1.98;;
28074;SDS011;15385;51.088;6.572;2022-08-11T14:16:33;8.32;;;1.67;;
28074;SDS011;15385;51.088;6.572;2022-08-11T14:19:11;2.15;;;1.73;;
28074;SDS011;15385;51.088;6.572;2022-08-11T14:21:43;2.30;;;1.58;;
28074;SDS011;15385;51.088;6.572;2022-08-11T14:24:40;2.92;;;1.67;;
28074;SDS011;15385;51.088;6.572;2022-08-11T14:27:18;4.35;;;2.03;;
28074;SDS011;15385;51.088;6.572;2022-08-11T14:29:55;2.05;;;1.77;;
28074;SDS011;15385;51.088;6.572;2022-08-11T14:32:27;4.45;;;1.80;;
28074;SDS011;15385;51.088;6.572;2022-08-11T14:34:58;2.15;;;1.75;;
28074;SDS011;15385;51.088;6.572;2022-08-11T14:37:29;2.95;;;2.17;;
28074;SDS011;15385;51.088;6.572;2022-08-11T14:40:00;2.55;;;1.60;;
28074;SDS011;15385;51.088;6.572;2022-08-11T14:42:51;3.22;;;2.05;;
28074;SDS011;15385;51.088;6.572;2022-08-11T14:45:45;4.43;;;2.08;;
28074;SDS011;15385;51.088;6.572;2022-08-11T14:48:35;2.05;;;1.67;;
28074;SDS011;15385;51.088;6.572;2022-08-11T14:51:06;4.68;;;2.08;;
28074;SDS011;15385;51.088;6.572;2022-08-11T14:53:37;3.53;;;2.08;;
28074;SDS011;15385;51.088;6.572;2022-08-11T14:56:09;3.20;;;1.85;;
28074;SDS011;15385;51.088;6.572;2022-08-11T14:59:01;2.33;;;2.03;;
28074;SDS011;15385;51.088;6.572;2022-08-11T15:01:32;7.03;;;2.13;;
28074;SDS011;15385;51.088;6.572;2022-08-11T15:04:21;3.87;;;2.20;;
28074;SDS011;15385;51.088;6.572;2022-08-11T15:06:53;3.20;;;2.10;;
28074;SDS011;15385;51.088;6.572;2022-08-11T15:09:23;2.33;;;1.70;;
28074;SDS011;15385;51.088;6.572;2022-08-11T15:11:54;2.33;;;1.80;;
28074;SDS011;15385;51.088;6.572;2022-08-11T15:14:38;8.85;;;2.15;;
28074;SDS011;15385;51.088;6.572;2022-08-11T15:17:27;4.93;;;1.80;;
28074;SDS011;15385;51.088;6.572;2022-08-11T15:20:04;3.25;;;1.70;;
28074;SDS011;15385;51.088;6.572;2022-08-11T15:22:57;2.40;;;1.83;;
28074;SDS011;15385;51.088;6.572;2022-08-11T15:25:48;4.03;;;1.80;;
28074;SDS011;15385;51.088;6.572;2022-08-11T15:28:24;6.65;;;1.92;;
28074;SDS011;15385;51.088;6.572;2022-08-11T15:31:17;3.80;;;1.90;;
28074;SDS011;15385;51.088;6.572;2022-08-11T15:34:01;2.00;;;1.75;;
28074;SDS011;15385;51.088;6.572;2022-08-11T15:36:57;2.70;;;1.75;;
28074;SDS011;15385;51.088;6.572;2022-08-11T15:39:52;2.15;;;1.67;;
28074;SDS011;15385;51.088;6.572;2022-08-11T15:43:10;3.83;;;1.90;;
28074;SDS011;15385;51.088;6.572;2022-08-11T15:46:08;4.00;;;1.87;;
28074;SDS011;15385;51.088;6.572;2022-08-11T15:48:51;4.85;;;1.70;;
28074;SDS011;15385;51.088;6.572;2022-08-11T15:54:15;4.70;;;1.85;;
28074;SDS011;15385;51.088;6.572;2022-08-11T15:56:48;8.02;;;2.28;;
28074;SDS011;15385;51.088;6.572;2022-08-11T15:59:20;5.82;;;1.80;;
28074;SDS011;15385;51.088;6.572;2022-08-11T16:02:14;5.22;;;1.88;;
28074;SDS011;15385;51.088;6.572;2022-08-11T16:05:27;2.28;;;1.98;;
28074;SDS011;15385;51.088;6.572;2022-08-11T16:07:57;2.10;;;1.90;;
28074;SDS011;15385;51.088;6.572;2022-08-11T16:10:29;2.10;;;1.90;;
28074;SDS011;15385;51.088;6.572;2022-08-11T16:13:04;2.17;;;1.95;;
28074;SDS011;15385;51.088;6.572;2022-08-11T16:15:37;2.55;;;1.83;;
28074;SDS011;15385;51.088;6.572;2022-08-11T16:18:32;4.75;;;2.30;;
28074;SDS011;15385;51.088;6.572;2022-08-11T16:21:31;2.40;;;1.85;;
28074;SDS011;15385;51.088;6.572;2022-08-11T16:24:04;2.40;;;2.00;;
28074;SDS011;15385;51.088;6.572;2022-08-11T16:26:38;2.72;;;2.30;;
28074;SDS011;15385;51.088;6.572;2022-08-11T16:29:10;5.72;;;2.10;;
28074;SDS011;15385;51.088;6.572;2022-08-11T16:31:45;2.80;;;1.55;;
28074;SDS011;15385;51.088;6.572;2022-08-11T16:34:36;3.58;;;2.40;;
28074;SDS011;15385;51.088;6.572;2022-08-11T16:37:28;3.58;;;2.22;;
28074;SDS011;15385;51.088;6.572;2022-08-11T16:40:21;2.50;;;2.08;;
28074;SDS011;15385;51.088;6.572;2022-08-11T16:42:53;4.47;;;1.75;;
28074;SDS011;15385;51.088;6.572;2022-08-11T16:45:43;2.40;;;1.90;;
28074;SDS011;15385;51.088;6.572;2022-08-11T16:51:06;2.80;;;1.85;;
28074;SDS011;15385;51.088;6.572;2022-08-11T16:53:42;3.95;;;1.88;;
28074;SDS011;15385;51.088;6.572;2022-08-11T16:56:35;4.38;;;2.03;;
28074;SDS011;15385;51.088;6.572;2022-08-11T16:59:08;8.13;;;1.92;;
28074;SDS011;15385;51.088;6.572;2022-08-11T17:01:54;2.25;;;2.00;;
28074;SDS011;15385;51.088;6.572;2022-08-11T17:07:40;7.18;;;2.30;;
28074;SDS011;15385;51.088;6.572;2022-08-11T17:13:54;4.85;;;2.08;;
28074;SDS011;15385;51.088;6.572;2022-08-11T17:16:34;3.38;;;2.38;;
28074;SDS011;15385;51.088;6.572;2022-08-11T17:19:09;4.18;;;2.03;;
28074;SDS011;15385;51.088;6.572;2022-08-11T17:21:51;3.47;;;2.03;;
28074;SDS011;15385;51.088;6.572;2022-08-11T17:24:42;2.80;;;2.08;;
28074;SDS011;15385;51.088;6.572;2022-08-11T17:27:18;2.55;;;1.98;;
28074;SDS011;15385;51.088;6.572;2022-08-11T17:29:51;2.50;;;2.28;;
28074;SDS011;15385;51.088;6.572;2022-08-11T17:32:32;3.55;;;2.28;;
28074;SDS011;15385;51.088;6.572;2022-08-11T17:35:24;2.58;;;2.30;;
28074;SDS011;15385;51.088;6.572;2022-08-11T17:38:09;3.38;;;2.10;;
28074;SDS011;15385;51.088;6.572;2022-08-11T17:40:51;4.53;;;2.00;;
28074;SDS011;15385;51.088;6.572;2022-08-11T17:43:42;2.60;;;2.10;;
28074;SDS011;15385;51.088;6.572;2022-08-11T17:46:34;4.40;;;1.90;;
28074;SDS011;15385;51.088;6.572;2022-08-11T17:49:25;3.20;;;2.30;;
28074;SDS011;15385;51.088;6.572;2022-08-11T17:52:06;5.75;;;2.38;;
28074;SDS011;15385;51.088;6.572;2022-08-11T17:54:56;6.05;;;2.47;;
28074;SDS011;15385;51.088;6.572;2022-08-11T17:57:47;3.13;;;2.10;;
28074;SDS011;15385;51.088;6.572;2022-08-11T18:00:37;3.05;;;2.30;;
28074;SDS011;15385;51.088;6.572;2022-08-11T18:03:08;2.92;;;2.38;;
28074;SDS011;15385;51.088;6.572;2022-08-11T18:06:00;1.73;;;1.60;;
28074;SDS011;15385;51.088;6.572;2022-08-11T18:08:32;3.97;;;2.20;;
28074;SDS011;15385;51.088;6.572;2022-08-11T18:11:24;9.25;;;2.17;;
28074;SDS011;15385;51.088;6.572;2022-08-11T18:14:15;2.97;;;2.00;;
28074;SDS011;15385;51.088;6.572;2022-08-11T18:17:06;4.47;;;1.73;;
28074;SDS011;15385;51.088;6.572;2022-08-11T18:19:56;3.67;;;1.92;;
28074;SDS011;15385;51.088;6.572;2022-08-11T18:22:46;5.40;;;2.08;;
28074;SDS011;15385;51.088;6.572;2022-08-11T18:25:41;4.22;;;2.60;;
28074;SDS011;15385;51.088;6.572;2022-08-11T18:28:34;3.60;;;2.20;;
28074;SDS011;15385;51.088;6.572;2022-08-11T18:31:34;4.50;;;2.30;;
28074;SDS011;15385;51.088;6.572;2022-08-11T18:34:29;4.65;;;1.95;;
28074;SDS011;15385;51.088;6.572;2022-08-11T18:37:29;2.88;;;2.20;;
28074;SDS011;15385;51.088;6.572;2022-08-11T18:40:23;6.65;;;2.30;;
28074;SDS011;15385;51.088;6.572;2022-08-11T18:43:14;3.35;;;2.30;;
28074;SDS011;15385;51.088;6.572;2022-08-11T18:46:07;3.92;;;2.35;;
28074;SDS011;15385;51.088;6.572;2022-08-11T18:49:06;3.30;;;2.20;;
28074;SDS011;15385;51.088;6.572;2022-08-11T18:52:00;4.50;;;1.98;;
28074;SDS011;15385;51.088;6.572;2022-08-11T18:54:51;3.03;;;2.00;;
28074;SDS011;15385;51.088;6.572;2022-08-11T18:57:46;6.68;;;2.33;;
28074;SDS011;15385;51.088;6.572;2022-08-11T19:00:38;2.50;;;1.83;;
28074;SDS011;15385;51.088;6.572;2022-08-11T19:03:29;3.90;;;2.53;;
28074;SDS011;15385;51.088;6.572;2022-08-11T19:06:19;2.33;;;2.13;;
28074;SDS011;15385;51.088;6.572;2022-08-11T19:09:12;5.97;;;2.70;;
28074;SDS011;15385;51.088;6.572;2022-08-11T19:12:05;4.88;;;2.05;;
28074;SDS011;15385;51.088;6.572;2022-08-11T19:14:56;3.85;;;2.33;;
28074;SDS011;15385;51.088;6.572;2022-08-11T19:17:46;3.55;;;2.50;;
28074;SDS011;15385;51.088;6.572;2022-08-11T19:20:37;9.73;;;2.40;;
28074;SDS011;15385;51.088;6.572;2022-08-11T19:23:34;4.25;;;2.67;;
28074;SDS011;15385;51.088;6.572;2022-08-11T19:26:28;4.40;;;2.05;;
28074;SDS011;15385;51.088;6.572;2022-08-11T19:29:19;3.35;;;2.10;;
28074;SDS011;15385;51.088;6.572;2022-08-11T19:32:11;4.90;;;2.28;;
28074;SDS011;15385;51.088;6.572;2022-08-11T19:35:01;3.08;;;2.47;;
28074;SDS011;15385;51.088;6.572;2022-08-11T19:37:51;5.20;;;2.50;;
28074;SDS011;15385;51.088;6.572;2022-08-11T19:40:42;2.88;;;2.67;;
28074;SDS011;15385;51.088;6.572;2022-08-11T19:43:32;5.10;;;2.83;;
28074;SDS011;15385;51.088;6.572;2022-08-11T19:46:25;2.83;;;2.45;;
28074;SDS011;15385;51.088;6.572;2022-08-11T19:49:15;5.03;;;2.22;;
28074;SDS011;15385;51.088;6.572;2022-08-11T19:52:05;4.25;;;2.42;;
28074;SDS011;15385;51.088;6.572;2022-08-11T19:54:55;3.55;;;2.40;;
28074;SDS011;15385;51.088;6.572;2022-08-11T19:57:45;3.38;;;2.78;;
28074;SDS011;15385;51.088;6.572;2022-08-11T20:03:25;4.97;;;2.47;;
28074;SDS011;15385;51.088;6.572;2022-08-11T20:06:15;5.18;;;2.53;;
28074;SDS011;15385;51.088;6.572;2022-08-11T20:09:06;4.55;;;2.30;;
28074;SDS011;15385;51.088;6.572;2022-08-11T20:11:58;2.75;;;2.25;;
28074;SDS011;15385;51.088;6.572;2022-08-11T20:14:49;5.35;;;2.47;;
28074;SDS011;15385;51.088;6.572;2022-08-11T20:17:41;7.50;;;2.40;;
28074;SDS011;15385;51.088;6.572;2022-08-11T20:20:31;5.35;;;2.50;;
28074;SDS011;15385;51.088;6.572;2022-08-11T20:23:21;5.32;;;2.35;;
28074;SDS011;15385;51.088;6.572;2022-08-11T20:26:12;4.20;;;2.60;;
28074;SDS011;15385;51.088;6.572;2022-08-11T20:29:02;4.38;;;2.88;;
28074;SDS011;15385;51.088;6.572;2022-08-11T20:31:54;19.85;;;3.25;;
28074;SDS011;15385;51.088;6.572;2022-08-11T20:34:44;7.05;;;2.50;;
28074;SDS011;15385;51.088;6.572;2022-08-11T20:37:34;3.22;;;2.55;;
28074;SDS011;15385;51.088;6.572;2022-08-11T20:40:24;2.60;;;2.40;;
28074;SDS011;15385;51.088;6.572;2022-08-11T20:43:14;4.70;;;2.47;;
28074;SDS011;15385;51.088;6.572;2022-08-11T20:46:06;3.05;;;2.42;;
28074;SDS011;15385;51.088;6.572;2022-08-11T20:48:57;3.88;;;2.60;;
28074;SDS011;15385;51.088;6.572;2022-08-11T20:51:48;3.45;;;2.40;;
28074;SDS011;15385;51.088;6.572;2022-08-11T20:54:38;3.20;;;2.20;;
28074;SDS011;15385;51.088;6.572;2022-08-11T20:57:29;4.80;;;3.00;;